createdAt,value
2022-11-16T00:07:58.957Z,7.44
2022-11-16T00:27:58.952Z,7.21
2022-11-16T00:47:58.923Z,7.02
2022-11-16T01:07:58.908Z,7.05
2022-11-16T01:27:58.898Z,7.17
2022-11-16T01:47:58.880Z,6.94
2022-11-16T02:07:58.858Z,6.93
2022-11-16T02:27:58.857Z,6.97
2022-11-16T02:47:58.841Z,7.09
2022-11-16T03:07:58.823Z,7.06
2022-11-16T03:27:58.800Z,7.02
2022-11-16T03:47:58.782Z,7.07
2022-11-16T04:07:58.769Z,7.29
2022-11-16T04:27:58.762Z,7.39
2022-11-16T04:47:58.736Z,7.41
2022-11-16T05:07:58.721Z,7.50
2022-11-16T05:27:58.712Z,7.54
2022-11-16T05:47:58.695Z,7.52
2022-11-16T06:27:58.666Z,7.37
2022-11-16T06:47:58.651Z,7.21
2022-11-16T07:07:58.649Z,7.40
2022-11-16T07:27:58.650Z,7.40
2022-11-16T07:47:58.604Z,7.64
2022-11-16T08:07:58.618Z,7.59
2022-11-16T08:27:58.556Z,7.76
2022-11-16T08:47:58.554Z,7.95
2022-11-16T09:07:58.560Z,8.15
2022-11-16T09:27:58.501Z,8.35
2022-11-16T09:47:58.521Z,8.45
2022-11-16T10:07:58.483Z,8.73
2022-11-16T10:27:58.461Z,8.95
2022-11-16T10:47:58.425Z,9.15
2022-11-16T11:07:58.421Z,9.45
2022-11-16T11:27:58.404Z,9.64
2022-11-16T11:47:58.394Z,9.88
2022-11-16T12:07:58.369Z,10.06
2022-11-16T12:27:58.341Z,10.17
2022-11-16T12:47:58.323Z,10.21
2022-11-16T13:07:58.291Z,10.32
2022-11-16T13:27:58.286Z,10.48
2022-11-16T13:47:58.263Z,10.60
2022-11-16T14:07:58.242Z,10.71
2022-11-16T14:27:58.228Z,10.64
2022-11-16T14:47:58.183Z,10.60
2022-11-16T15:07:58.177Z,10.50
2022-11-16T15:27:58.149Z,10.17
2022-11-16T15:47:58.132Z,9.92
2022-11-16T16:07:58.118Z,9.45
2022-11-16T16:27:58.106Z,9.18
2022-11-16T16:47:58.089Z,8.96
2022-11-16T17:07:58.213Z,8.69
2022-11-16T17:27:58.045Z,8.50
2022-11-16T17:47:58.029Z,8.14
2022-11-16T18:07:58.015Z,7.79
2022-11-16T18:27:58.018Z,7.76
2022-11-16T18:47:58.032Z,7.80
2022-11-16T19:07:57.958Z,7.40
2022-11-16T19:27:58.061Z,7.45
2022-11-16T19:47:57.918Z,7.01
2022-11-16T20:07:57.965Z,7.15
2022-11-16T20:27:57.949Z,6.93
2022-11-16T20:47:57.898Z,6.90
2022-11-16T21:07:57.863Z,6.72
2022-11-16T21:27:57.857Z,6.53
2022-11-16T21:47:57.820Z,6.46
2022-11-16T22:07:57.807Z,6.19
2022-11-16T22:27:57.803Z,5.87
2022-11-16T22:47:57.799Z,5.77
2022-11-16T23:07:57.761Z,5.58
2022-11-16T23:27:57.759Z,5.66
2022-11-16T23:47:57.749Z,5.45
